Monday, December 22, 2014, 9:09 AM EST

KLKU, Louisa, Louisa County Airport/freeman Field

Location: Louisa, VA, United States Lat: 38.01
Local Time: 9:09 AM EST (14:09 GMT) Lon: -77.97
Time Zone: US/Eastern Elev: 492 ft

Show me the last for .
Show Decoded

2014-12-22 08:55 METAR KLKU 221355Z AUTO 36003KT 3SM UP BKN035 OVC042 01/M01 A3025 RMK AO2 =
2014-12-22 08:35 METAR KLKU 221335Z AUTO 01003KT 4SM UP SCT035 OVC042 01/M01 A3025 RMK AO2 =
2014-12-22 08:15 METAR KLKU 221315Z AUTO 03004KT 5SM BR SCT042 BKN075 OVC085 01/M02 A3023 RMK AO2
                 =
2014-12-22 07:55 METAR KLKU 221255Z AUTO 03006KT 5SM BR BKN036 BKN070 OVC085 01/M02 A3022 RMK AO2
                 =
2014-12-22 07:35 METAR KLKU 221235Z AUTO 03003KT 5SM UP BKN036 OVC043 01/M02 A3024 RMK AO2 =
2014-12-22 07:15 METAR KLKU 221215Z AUTO 04004KT 7SM UP BKN036 OVC045 01/M02 A3024 RMK AO2 =
2014-12-22 06:55 METAR KLKU 221155Z AUTO 02005KT 7SM UP BKN038 OVC045 01/M02 A3023 RMK AO2 =
2014-12-22 06:35 METAR KLKU 221135Z AUTO 02003KT 7SM BKN036 OVC042 01/M02 A3023 RMK AO2 =
2014-12-22 06:15 METAR KLKU 221115Z AUTO 03005KT 10SM OVC036 01/M02 A3023 RMK AO2 =
2014-12-22 05:55 METAR KLKU 221055Z AUTO 01005KT 10SM OVC036 01/M02 A3023 RMK AO2 =
2014-12-22 05:35 METAR KLKU 221035Z AUTO 01004KT 10SM OVC038 01/M02 A3024 RMK AO2 =
2014-12-22 05:15 METAR KLKU 221015Z AUTO 02003KT 10SM OVC040 01/M02 A3024 RMK AO2 =
2014-12-22 04:55 METAR KLKU 220955Z AUTO 36003KT 10SM OVC040 01/M02 A3024 RMK AO2 =
2014-12-22 04:35 METAR KLKU 220935Z AUTO 01003KT 10SM OVC040 01/M02 A3024 RMK AO2 =
2014-12-22 04:15 METAR KLKU 220915Z AUTO 04003KT 10SM OVC040 01/M02 A3023 RMK AO2 =
2014-12-22 03:55 METAR KLKU 220855Z AUTO 01003KT 10SM OVC042 01/M02 A3024 RMK AO2 =
2014-12-22 03:35 METAR KLKU 220835Z AUTO 00000KT 10SM BKN044 OVC060 00/M02 A3026 RMK AO2 =
2014-12-22 02:55 METAR KLKU 220755Z AUTO 00000KT 10SM BKN050 00/M02 A3027 RMK AO2 =
2014-12-22 02:35 METAR KLKU 220735Z AUTO 00000KT 10SM SCT046 M01/M02 A3027 RMK AO2 =
2014-12-22 02:15 METAR KLKU 220715Z AUTO 00000KT 10SM OVC046 00/M02 A3027 RMK AO2 =
2014-12-22 01:55 METAR KLKU 220655Z AUTO 00000KT 10SM OVC046 00/M02 A3027 RMK AO2 =
2014-12-22 01:35 METAR KLKU 220635Z AUTO 00000KT 10SM OVC046 01/M02 A3027 RMK AO2 =
2014-12-22 01:15 METAR KLKU 220615Z AUTO 00000KT 10SM OVC048 01/M02 A3027 RMK AO2 =
2014-12-22 00:55 METAR KLKU 220555Z AUTO 00000KT 10SM OVC048 01/M02 A3028 RMK AO2 =
2014-12-22 00:35 METAR KLKU 220535Z AUTO 00000KT 10SM OVC048 01/M01 A3028 RMK AO2 =
2014-12-22 00:15 METAR KLKU 220515Z AUTO 00000KT 10SM OVC046 01/M01 A3028 RMK AO2 =
2014-12-21 23:55 METAR KLKU 220455Z AUTO 00000KT 10SM OVC046 01/M01 A3029 RMK AO2 =
2014-12-21 23:35 METAR KLKU 220435Z AUTO 00000KT 10SM OVC046 01/M02 A3029 RMK AO2 =
2014-12-21 23:15 METAR KLKU 220415Z AUTO 00000KT 10SM OVC046 01/M02 A3029 RMK AO2 =
2014-12-21 22:55 METAR KLKU 220355Z AUTO 00000KT 10SM OVC048 01/M02 A3029 RMK AO2 =
2014-12-21 22:35 METAR KLKU 220335Z AUTO 00000KT 10SM OVC048 01/M03 A3029 RMK AO2 =
2014-12-21 22:15 METAR KLKU 220315Z AUTO 00000KT 10SM BKN048 00/M03 A3029 RMK AO2 =
2014-12-21 21:55 METAR KLKU 220255Z AUTO 07003KT 10SM SCT050 M02/M03 A3029 RMK AO2 =
2014-12-21 21:35 METAR KLKU 220235Z AUTO 00000KT 10SM CLR M01/M03 A3029 RMK AO2 =
2014-12-21 21:15 METAR KLKU 220215Z AUTO 00000KT 10SM CLR 00/M03 A3029 RMK AO2 =
2014-12-21 20:55 METAR KLKU 220155Z AUTO 11003KT 10SM CLR M01/M03 A3029 RMK AO2 =
2014-12-21 20:35 METAR KLKU 220135Z AUTO 11003KT 10SM CLR M01/M03 A3029 RMK AO2 =
2014-12-21 20:15 METAR KLKU 220115Z AUTO 11003KT 10SM CLR M02/M03 A3028 RMK AO2 =
2014-12-21 19:55 METAR KLKU 220055Z AUTO 00000KT 10SM CLR M01/M03 A3028 RMK AO2 =
2014-12-21 19:35 METAR KLKU 220035Z AUTO 09003KT 10SM CLR M02/M03 A3028 RMK AO2 =
2014-12-21 19:15 METAR KLKU 220015Z AUTO 00000KT 10SM CLR M02/M03 A3028 RMK AO2 =
2014-12-21 18:55 METAR KLKU 212355Z AUTO 00000KT 10SM CLR M02/M03 A3028 RMK AO2 =
2014-12-21 18:35 METAR KLKU 212335Z AUTO 00000KT 10SM CLR M01/M02 A3027 RMK AO2 =
2014-12-21 18:15 METAR KLKU 212315Z AUTO 08003KT 10SM CLR M01/M03 A3026 RMK AO2 =
2014-12-21 17:55 METAR KLKU 212255Z AUTO 00000KT 10SM CLR M01/M03 A3027 RMK AO2 =
2014-12-21 17:35 METAR KLKU 212235Z AUTO 00000KT 10SM CLR 00/M02 A3028 RMK AO2 =
2014-12-21 17:15 METAR KLKU 212215Z AUTO 00000KT 10SM CLR 02/M02 A3027 RMK AO2 =
2014-12-21 16:55 METAR KLKU 212155Z AUTO 07003KT 10SM CLR 04/M02 A3026 RMK AO2 =
2014-12-21 16:35 METAR KLKU 212135Z AUTO 09003KT 10SM CLR 05/M02 A3026 RMK AO2 =
2014-12-21 16:15 METAR KLKU 212115Z AUTO 00000KT 10SM CLR 06/M02 A3026 RMK AO2 =
2014-12-21 15:55 METAR KLKU 212055Z AUTO 00000KT 10SM CLR 07/M02 A3026 RMK AO2 =
2014-12-21 15:35 METAR KLKU 212035Z AUTO 00000KT 10SM CLR 07/M02 A3025 RMK AO2 =
2014-12-21 15:15 METAR KLKU 212015Z AUTO 00000KT 10SM CLR 07/M02 A3024 RMK AO2 =
2014-12-21 14:55 METAR KLKU 211955Z AUTO 00000KT 10SM CLR 07/M02 A3024 RMK AO2 =
2014-12-21 14:35 METAR KLKU 211935Z AUTO 00000KT 10SM CLR 07/M02 A3025 RMK AO2 =
2014-12-21 14:15 METAR KLKU 211915Z AUTO 00000KT 10SM CLR 07/M02 A3026 RMK AO2 =
2014-12-21 13:55 METAR KLKU 211855Z AUTO 35003KT 10SM CLR 06/M02 A3026 RMK AO2 =
2014-12-21 13:35 METAR KLKU 211835Z AUTO 06003KT 10SM CLR 06/M02 A3027 RMK AO2 =
2014-12-21 13:15 METAR KLKU 211815Z AUTO 00000KT 10SM SCT050 06/M02 A3028 RMK AO2 =
2014-12-21 12:55 METAR KLKU 211755Z AUTO 07003KT 10SM CLR 06/M03 A3029 RMK AO2 =
2014-12-21 12:35 METAR KLKU 211735Z AUTO 07003KT 10SM SCT050 06/M02 A3029 RMK AO2 =
2014-12-21 12:15 METAR KLKU 211715Z AUTO 07003KT 10SM OVC050 05/M03 A3030 RMK AO2 =
2014-12-21 11:55 METAR KLKU 211655Z AUTO 00000KT 10SM OVC050 04/M03 A3031 RMK AO2 =
2014-12-21 11:35 METAR KLKU 211635Z AUTO 10003KT 10SM OVC050 04/M03 A3032 RMK AO2 =
2014-12-21 11:15 METAR KLKU 211615Z AUTO 00000KT 10SM OVC060 03/M03 A3033 RMK AO2 =
2014-12-21 10:55 METAR KLKU 211555Z AUTO 00000KT 10SM OVC060 03/M03 A3034 RMK AO2 =
2014-12-21 10:35 METAR KLKU 211535Z AUTO 00000KT 10SM OVC060 03/M03 A3034 RMK AO2 =
2014-12-21 10:15 METAR KLKU 211515Z AUTO 07003KT 10SM OVC060 03/M03 A3034 RMK AO2 =
2014-12-21 09:55 METAR KLKU 211455Z AUTO 00000KT 10SM OVC060 03/M02 A3034 RMK AO2 =
2014-12-21 09:35 METAR KLKU 211435Z AUTO 00000KT 10SM OVC060 02/M02 A3033 RMK AO2 =
2014-12-21 09:15 METAR KLKU 211415Z AUTO 00000KT 10SM OVC060 02/M02 A3033 RMK AO2 =

Support USWX by starting your Amazon purchase here.